Sri Lanka

Resources for Sri Lanka vACC

Active Sector File
vatwa-srm.rar | Release Date 6/1/2016 | Downloads 49 | File Size 0.55 MB

Alias File
vccc-vrmf-alias.zip | Downloads 34 | File Size 2.11 KB

Position File
vccc-vrmf-pof.zip | Downloads 30   | File Size 2.11 KB

Crib File
VCBI-VCRI_Crib.pdf | Downloads 62 | File Size 0.63 MB

VATSIM Metar for Sri Lanka
VCRI 130910Z 24013KT 9999 FEW018 35/25 Q1004 NOSIG
VCCC 130400Z 27003KT 9999 SCT018 FEW020TCU(N/NE) 30/25 Q1008 A2977
VCBI 130910Z 23011KT 210V270 9999 BKN017 30/27 Q1006 NOSIG